sensor_id;sensor_type;location;lat;lon;timestamp;P1;durP1;ratioP1;P2;durP2;ratioP2
17686;SDS011;8962;52.538;13.266;2023-05-20T00:00:44;6.15;;;3.85;;
17686;SDS011;8962;52.538;13.266;2023-05-20T00:03:13;8.77;;;3.78;;
17686;SDS011;8962;52.538;13.266;2023-05-20T00:05:40;5.88;;;3.70;;
17686;SDS011;8962;52.538;13.266;2023-05-20T00:08:08;6.68;;;4.25;;
17686;SDS011;8962;52.538;13.266;2023-05-20T00:10:35;5.57;;;3.70;;
17686;SDS011;8962;52.538;13.266;2023-05-20T00:13:06;9.38;;;3.38;;
17686;SDS011;8962;52.538;13.266;2023-05-20T00:15:35;6.50;;;3.40;;
17686;SDS011;8962;52.538;13.266;2023-05-20T00:18:03;6.75;;;3.50;;
17686;SDS011;8962;52.538;13.266;2023-05-20T00:20:31;5.18;;;3.90;;
17686;SDS011;8962;52.538;13.266;2023-05-20T00:22:58;7.47;;;3.95;;
17686;SDS011;8962;52.538;13.266;2023-05-20T00:25:26;5.82;;;3.55;;
17686;SDS011;8962;52.538;13.266;2023-05-20T00:27:54;7.38;;;4.05;;
17686;SDS011;8962;52.538;13.266;2023-05-20T00:30:22;7.82;;;4.00;;
17686;SDS011;8962;52.538;13.266;2023-05-20T00:32:51;8.68;;;3.70;;
17686;SDS011;8962;52.538;13.266;2023-05-20T00:35:18;8.10;;;4.13;;
17686;SDS011;8962;52.538;13.266;2023-05-20T00:37:45;5.55;;;3.45;;
17686;SDS011;8962;52.538;13.266;2023-05-20T00:40:12;7.43;;;4.03;;
17686;SDS011;8962;52.538;13.266;2023-05-20T00:42:40;6.40;;;3.90;;
17686;SDS011;8962;52.538;13.266;2023-05-20T00:45:10;6.00;;;3.30;;
17686;SDS011;8962;52.538;13.266;2023-05-20T00:47:38;7.53;;;4.07;;
17686;SDS011;8962;52.538;13.266;2023-05-20T00:50:08;6.43;;;4.15;;
17686;SDS011;8962;52.538;13.266;2023-05-20T00:52:38;5.55;;;3.88;;
17686;SDS011;8962;52.538;13.266;2023-05-20T00:55:05;7.80;;;3.90;;
17686;SDS011;8962;52.538;13.266;2023-05-20T00:57:34;5.65;;;3.58;;
17686;SDS011;8962;52.538;13.266;2023-05-20T01:00:02;5.68;;;3.85;;
17686;SDS011;8962;52.538;13.266;2023-05-20T01:02:30;8.63;;;3.80;;
17686;SDS011;8962;52.538;13.266;2023-05-20T01:04:58;6.55;;;3.85;;
17686;SDS011;8962;52.538;13.266;2023-05-20T01:07:27;5.55;;;3.85;;
17686;SDS011;8962;52.538;13.266;2023-05-20T01:09:55;5.25;;;3.47;;
17686;SDS011;8962;52.538;13.266;2023-05-20T01:12:24;4.35;;;3.40;;
17686;SDS011;8962;52.538;13.266;2023-05-20T01:14:55;7.90;;;4.10;;
17686;SDS011;8962;52.538;13.266;2023-05-20T01:17:29;5.88;;;4.07;;
17686;SDS011;8962;52.538;13.266;2023-05-20T01:20:02;8.60;;;4.35;;
17686;SDS011;8962;52.538;13.266;2023-05-20T01:22:35;6.45;;;3.88;;
17686;SDS011;8962;52.538;13.266;2023-05-20T01:25:03;5.93;;;3.58;;
17686;SDS011;8962;52.538;13.266;2023-05-20T01:27:31;5.45;;;3.70;;
17686;SDS011;8962;52.538;13.266;2023-05-20T01:29:58;8.52;;;4.15;;
17686;SDS011;8962;52.538;13.266;2023-05-20T01:32:32;7.82;;;3.85;;
17686;SDS011;8962;52.538;13.266;2023-05-20T01:35:06;11.98;;;4.38;;
17686;SDS011;8962;52.538;13.266;2023-05-20T01:37:37;9.70;;;4.18;;
17686;SDS011;8962;52.538;13.266;2023-05-20T01:40:06;6.68;;;3.90;;
17686;SDS011;8962;52.538;13.266;2023-05-20T01:42:37;6.88;;;4.03;;
17686;SDS011;8962;52.538;13.266;2023-05-20T01:45:06;8.45;;;3.97;;
17686;SDS011;8962;52.538;13.266;2023-05-20T01:47:34;5.35;;;3.97;;
17686;SDS011;8962;52.538;13.266;2023-05-20T01:50:02;5.85;;;4.18;;
17686;SDS011;8962;52.538;13.266;2023-05-20T01:52:30;7.30;;;4.18;;
17686;SDS011;8962;52.538;13.266;2023-05-20T01:54:58;10.68;;;4.90;;
17686;SDS011;8962;52.538;13.266;2023-05-20T01:57:25;7.50;;;4.32;;
17686;SDS011;8962;52.538;13.266;2023-05-20T01:59:52;7.85;;;4.10;;
17686;SDS011;8962;52.538;13.266;2023-05-20T02:02:20;10.07;;;4.50;;
17686;SDS011;8962;52.538;13.266;2023-05-20T02:04:49;8.32;;;4.65;;
17686;SDS011;8962;52.538;13.266;2023-05-20T02:07:17;6.35;;;4.03;;
17686;SDS011;8962;52.538;13.266;2023-05-20T02:09:44;7.68;;;4.32;;
17686;SDS011;8962;52.538;13.266;2023-05-20T02:12:16;6.15;;;4.20;;
17686;SDS011;8962;52.538;13.266;2023-05-20T02:14:43;9.25;;;4.50;;
17686;SDS011;8962;52.538;13.266;2023-05-20T02:17:12;8.65;;;4.78;;
17686;SDS011;8962;52.538;13.266;2023-05-20T02:19:41;6.35;;;4.53;;
17686;SDS011;8962;52.538;13.266;2023-05-20T02:22:09;8.15;;;4.70;;
17686;SDS011;8962;52.538;13.266;2023-05-20T02:24:36;6.95;;;4.47;;
17686;SDS011;8962;52.538;13.266;2023-05-20T02:27:03;8.13;;;4.47;;
17686;SDS011;8962;52.538;13.266;2023-05-20T02:29:34;6.68;;;4.47;;
17686;SDS011;8962;52.538;13.266;2023-05-20T02:32:02;6.63;;;4.10;;
17686;SDS011;8962;52.538;13.266;2023-05-20T02:34:30;9.02;;;4.53;;
17686;SDS011;8962;52.538;13.266;2023-05-20T02:36:58;8.70;;;4.25;;
17686;SDS011;8962;52.538;13.266;2023-05-20T02:39:26;9.30;;;4.88;;
17686;SDS011;8962;52.538;13.266;2023-05-20T02:41:53;7.70;;;4.68;;
17686;SDS011;8962;52.538;13.266;2023-05-20T02:44:21;6.68;;;4.15;;
17686;SDS011;8962;52.538;13.266;2023-05-20T02:46:50;8.00;;;4.78;;
17686;SDS011;8962;52.538;13.266;2023-05-20T02:49:19;5.75;;;4.10;;
17686;SDS011;8962;52.538;13.266;2023-05-20T02:51:49;6.30;;;4.05;;
17686;SDS011;8962;52.538;13.266;2023-05-20T02:54:16;6.28;;;4.45;;
17686;SDS011;8962;52.538;13.266;2023-05-20T02:56:45;6.53;;;4.20;;
17686;SDS011;8962;52.538;13.266;2023-05-20T02:59:13;6.38;;;4.72;;
17686;SDS011;8962;52.538;13.266;2023-05-20T03:01:41;9.48;;;4.50;;
17686;SDS011;8962;52.538;13.266;2023-05-20T03:04:10;8.50;;;4.78;;
17686;SDS011;8962;52.538;13.266;2023-05-20T03:06:38;7.88;;;4.60;;
17686;SDS011;8962;52.538;13.266;2023-05-20T03:09:08;7.78;;;5.05;;
17686;SDS011;8962;52.538;13.266;2023-05-20T03:11:35;6.28;;;4.28;;
17686;SDS011;8962;52.538;13.266;2023-05-20T03:14:05;10.73;;;4.82;;
17686;SDS011;8962;52.538;13.266;2023-05-20T03:16:32;7.10;;;4.82;;
17686;SDS011;8962;52.538;13.266;2023-05-20T03:19:01;7.10;;;4.63;;
17686;SDS011;8962;52.538;13.266;2023-05-20T03:21:32;8.45;;;4.20;;
17686;SDS011;8962;52.538;13.266;2023-05-20T03:23:59;6.78;;;4.60;;
17686;SDS011;8962;52.538;13.266;2023-05-20T03:26:27;7.50;;;4.93;;
17686;SDS011;8962;52.538;13.266;2023-05-20T03:28:55;8.32;;;4.65;;
17686;SDS011;8962;52.538;13.266;2023-05-20T03:31:23;8.50;;;4.32;;
17686;SDS011;8962;52.538;13.266;2023-05-20T03:33:50;7.70;;;4.60;;
17686;SDS011;8962;52.538;13.266;2023-05-20T03:36:17;10.13;;;5.28;;
17686;SDS011;8962;52.538;13.266;2023-05-20T03:38:47;7.57;;;4.47;;
17686;SDS011;8962;52.538;13.266;2023-05-20T03:41:14;8.65;;;4.60;;
17686;SDS011;8962;52.538;13.266;2023-05-20T03:43:42;8.10;;;4.10;;
17686;SDS011;8962;52.538;13.266;2023-05-20T03:46:09;7.43;;;4.75;;
17686;SDS011;8962;52.538;13.266;2023-05-20T03:48:36;11.27;;;4.80;;
17686;SDS011;8962;52.538;13.266;2023-05-20T03:51:04;9.45;;;4.57;;
17686;SDS011;8962;52.538;13.266;2023-05-20T03:53:32;8.00;;;4.50;;
17686;SDS011;8962;52.538;13.266;2023-05-20T03:56:01;6.60;;;4.05;;
17686;SDS011;8962;52.538;13.266;2023-05-20T03:58:29;8.13;;;4.70;;
17686;SDS011;8962;52.538;13.266;2023-05-20T04:00:56;6.35;;;4.03;;
17686;SDS011;8962;52.538;13.266;2023-05-20T04:03:25;9.25;;;4.57;;
17686;SDS011;8962;52.538;13.266;2023-05-20T04:05:53;9.95;;;5.03;;
17686;SDS011;8962;52.538;13.266;2023-05-20T04:08:21;7.85;;;4.47;;
17686;SDS011;8962;52.538;13.266;2023-05-20T04:10:50;7.80;;;4.30;;
17686;SDS011;8962;52.538;13.266;2023-05-20T04:13:24;8.73;;;4.82;;
17686;SDS011;8962;52.538;13.266;2023-05-20T04:15:51;8.98;;;4.38;;
17686;SDS011;8962;52.538;13.266;2023-05-20T04:18:19;7.95;;;4.10;;
17686;SDS011;8962;52.538;13.266;2023-05-20T04:20:46;7.55;;;4.25;;
17686;SDS011;8962;52.538;13.266;2023-05-20T04:23:19;10.15;;;5.10;;
17686;SDS011;8962;52.538;13.266;2023-05-20T04:25:46;6.55;;;4.50;;
17686;SDS011;8962;52.538;13.266;2023-05-20T04:28:14;8.93;;;4.50;;
17686;SDS011;8962;52.538;13.266;2023-05-20T04:30:44;6.88;;;4.85;;
17686;SDS011;8962;52.538;13.266;2023-05-20T04:33:12;7.55;;;4.43;;
17686;SDS011;8962;52.538;13.266;2023-05-20T04:35:40;10.02;;;5.38;;
17686;SDS011;8962;52.538;13.266;2023-05-20T04:38:08;8.43;;;4.38;;
17686;SDS011;8962;52.538;13.266;2023-05-20T04:40:38;8.82;;;4.40;;
17686;SDS011;8962;52.538;13.266;2023-05-20T04:43:06;10.75;;;4.32;;
17686;SDS011;8962;52.538;13.266;2023-05-20T04:45:34;8.38;;;4.30;;
17686;SDS011;8962;52.538;13.266;2023-05-20T04:48:04;8.80;;;4.28;;
17686;SDS011;8962;52.538;13.266;2023-05-20T04:50:35;7.32;;;4.47;;
17686;SDS011;8962;52.538;13.266;2023-05-20T04:53:05;6.57;;;4.43;;
17686;SDS011;8962;52.538;13.266;2023-05-20T04:55:33;10.10;;;4.95;;
17686;SDS011;8962;52.538;13.266;2023-05-20T04:58:01;12.32;;;4.93;;
17686;SDS011;8962;52.538;13.266;2023-05-20T05:00:29;7.28;;;4.70;;
17686;SDS011;8962;52.538;13.266;2023-05-20T05:02:57;7.60;;;4.63;;
17686;SDS011;8962;52.538;13.266;2023-05-20T05:05:26;11.82;;;4.97;;
17686;SDS011;8962;52.538;13.266;2023-05-20T05:07:54;7.43;;;5.05;;
17686;SDS011;8962;52.538;13.266;2023-05-20T05:10:22;7.80;;;4.75;;
17686;SDS011;8962;52.538;13.266;2023-05-20T05:12:49;15.05;;;4.90;;
17686;SDS011;8962;52.538;13.266;2023-05-20T05:15:19;9.32;;;5.07;;
17686;SDS011;8962;52.538;13.266;2023-05-20T05:17:47;10.45;;;4.97;;
17686;SDS011;8962;52.538;13.266;2023-05-20T05:20:14;10.50;;;5.85;;
17686;SDS011;8962;52.538;13.266;2023-05-20T05:22:44;8.00;;;5.20;;
17686;SDS011;8962;52.538;13.266;2023-05-20T05:25:11;9.82;;;5.40;;
17686;SDS011;8962;52.538;13.266;2023-05-20T05:27:40;7.95;;;5.15;;
17686;SDS011;8962;52.538;13.266;2023-05-20T05:30:09;8.93;;;4.95;;
17686;SDS011;8962;52.538;13.266;2023-05-20T05:32:37;10.43;;;5.00;;
17686;SDS011;8962;52.538;13.266;2023-05-20T05:35:07;10.20;;;5.32;;
17686;SDS011;8962;52.538;13.266;2023-05-20T05:37:34;13.90;;;5.85;;
17686;SDS011;8962;52.538;13.266;2023-05-20T05:40:05;8.25;;;5.13;;
17686;SDS011;8962;52.538;13.266;2023-05-20T05:42:33;8.07;;;4.80;;
17686;SDS011;8962;52.538;13.266;2023-05-20T05:45:02;9.60;;;5.07;;
17686;SDS011;8962;52.538;13.266;2023-05-20T05:47:30;11.13;;;5.32;;
17686;SDS011;8962;52.538;13.266;2023-05-20T05:49:59;8.63;;;5.13;;
17686;SDS011;8962;52.538;13.266;2023-05-20T05:52:28;9.93;;;5.53;;
17686;SDS011;8962;52.538;13.266;2023-05-20T05:54:58;9.98;;;5.10;;
17686;SDS011;8962;52.538;13.266;2023-05-20T05:57:28;9.63;;;5.00;;
17686;SDS011;8962;52.538;13.266;2023-05-20T05:59:56;14.43;;;5.22;;
17686;SDS011;8962;52.538;13.266;2023-05-20T06:02:23;8.57;;;5.13;;
17686;SDS011;8962;52.538;13.266;2023-05-20T06:04:50;8.70;;;5.32;;
17686;SDS011;8962;52.538;13.266;2023-05-20T06:07:18;10.73;;;5.50;;
17686;SDS011;8962;52.538;13.266;2023-05-20T06:09:45;8.70;;;5.18;;
17686;SDS011;8962;52.538;13.266;2023-05-20T06:12:13;10.70;;;5.80;;
17686;SDS011;8962;52.538;13.266;2023-05-20T06:14:42;9.18;;;5.25;;
17686;SDS011;8962;52.538;13.266;2023-05-20T06:17:09;12.25;;;5.53;;
17686;SDS011;8962;52.538;13.266;2023-05-20T06:19:38;10.93;;;5.40;;
17686;SDS011;8962;52.538;13.266;2023-05-20T06:22:09;11.82;;;5.53;;
17686;SDS011;8962;52.538;13.266;2023-05-20T06:24:36;8.27;;;5.85;;
17686;SDS011;8962;52.538;13.266;2023-05-20T06:27:04;12.35;;;6.07;;
17686;SDS011;8962;52.538;13.266;2023-05-20T06:29:32;12.43;;;6.80;;
17686;SDS011;8962;52.538;13.266;2023-05-20T06:32:01;9.80;;;6.25;;
17686;SDS011;8962;52.538;13.266;2023-05-20T06:34:29;9.30;;;5.35;;
17686;SDS011;8962;52.538;13.266;2023-05-20T06:36:57;9.07;;;5.68;;
17686;SDS011;8962;52.538;13.266;2023-05-20T06:39:25;11.05;;;6.20;;
17686;SDS011;8962;52.538;13.266;2023-05-20T06:41:52;12.18;;;5.70;;
17686;SDS011;8962;52.538;13.266;2023-05-20T06:44:29;9.23;;;6.30;;
17686;SDS011;8962;52.538;13.266;2023-05-20T06:47:01;11.25;;;5.70;;
17686;SDS011;8962;52.538;13.266;2023-05-20T06:49:30;13.13;;;6.38;;
17686;SDS011;8962;52.538;13.266;2023-05-20T06:51:57;13.23;;;5.93;;
17686;SDS011;8962;52.538;13.266;2023-05-20T06:54:24;10.98;;;5.97;;
17686;SDS011;8962;52.538;13.266;2023-05-20T06:56:52;10.25;;;5.97;;
17686;SDS011;8962;52.538;13.266;2023-05-20T06:59:20;9.40;;;5.60;;
17686;SDS011;8962;52.538;13.266;2023-05-20T07:01:48;11.73;;;6.15;;
17686;SDS011;8962;52.538;13.266;2023-05-20T07:04:17;9.32;;;6.45;;
17686;SDS011;8962;52.538;13.266;2023-05-20T07:06:44;9.02;;;6.07;;
17686;SDS011;8962;52.538;13.266;2023-05-20T07:09:12;10.63;;;6.00;;
17686;SDS011;8962;52.538;13.266;2023-05-20T07:11:39;9.50;;;5.93;;
17686;SDS011;8962;52.538;13.266;2023-05-20T07:14:07;11.63;;;5.63;;
17686;SDS011;8962;52.538;13.266;2023-05-20T07:16:35;11.02;;;5.55;;
17686;SDS011;8962;52.538;13.266;2023-05-20T07:19:03;10.23;;;7.07;;
17686;SDS011;8962;52.538;13.266;2023-05-20T07:21:33;14.02;;;7.32;;
17686;SDS011;8962;52.538;13.266;2023-05-20T07:24:23;9.90;;;6.10;;
17686;SDS011;8962;52.538;13.266;2023-05-20T07:26:50;9.25;;;6.18;;
17686;SDS011;8962;52.538;13.266;2023-05-20T07:29:17;11.63;;;5.97;;
17686;SDS011;8962;52.538;13.266;2023-05-20T07:31:45;11.77;;;5.80;;
17686;SDS011;8962;52.538;13.266;2023-05-20T07:34:14;10.88;;;5.80;;
17686;SDS011;8962;52.538;13.266;2023-05-20T07:36:43;9.73;;;6.18;;
17686;SDS011;8962;52.538;13.266;2023-05-20T07:39:10;9.88;;;5.90;;
17686;SDS011;8962;52.538;13.266;2023-05-20T07:41:41;8.90;;;5.43;;
17686;SDS011;8962;52.538;13.266;2023-05-20T07:44:08;11.50;;;5.88;;
17686;SDS011;8962;52.538;13.266;2023-05-20T07:46:38;11.63;;;5.88;;
17686;SDS011;8962;52.538;13.266;2023-05-20T07:49:06;7.95;;;5.05;;
17686;SDS011;8962;52.538;13.266;2023-05-20T07:51:33;8.35;;;5.60;;
17686;SDS011;8962;52.538;13.266;2023-05-20T07:54:02;14.40;;;5.82;;
17686;SDS011;8962;52.538;13.266;2023-05-20T07:56:29;9.35;;;5.22;;
17686;SDS011;8962;52.538;13.266;2023-05-20T07:58:58;8.20;;;5.50;;
17686;SDS011;8962;52.538;13.266;2023-05-20T08:01:30;9.18;;;6.03;;
17686;SDS011;8962;52.538;13.266;2023-05-20T08:03:58;9.48;;;5.53;;
17686;SDS011;8962;52.538;13.266;2023-05-20T08:06:27;9.63;;;5.53;;
17686;SDS011;8962;52.538;13.266;2023-05-20T08:08:57;7.07;;;5.00;;
17686;SDS011;8962;52.538;13.266;2023-05-20T08:11:31;10.18;;;4.85;;
17686;SDS011;8962;52.538;13.266;2023-05-20T08:13:59;7.55;;;4.95;;
17686;SDS011;8962;52.538;13.266;2023-05-20T08:16:29;8.00;;;5.68;;
17686;SDS011;8962;52.538;13.266;2023-05-20T08:18:56;14.20;;;6.35;;
17686;SDS011;8962;52.538;13.266;2023-05-20T08:21:23;8.10;;;5.20;;
17686;SDS011;8962;52.538;13.266;2023-05-20T08:23:51;7.88;;;5.88;;
17686;SDS011;8962;52.538;13.266;2023-05-20T08:26:20;8.65;;;6.03;;
17686;SDS011;8962;52.538;13.266;2023-05-20T08:28:50;10.32;;;5.93;;
17686;SDS011;8962;52.538;13.266;2023-05-20T08:31:18;10.65;;;6.10;;
17686;SDS011;8962;52.538;13.266;2023-05-20T08:33:46;9.48;;;5.70;;
17686;SDS011;8962;52.538;13.266;2023-05-20T08:36:13;8.18;;;5.05;;
17686;SDS011;8962;52.538;13.266;2023-05-20T08:38:40;10.35;;;6.15;;
17686;SDS011;8962;52.538;13.266;2023-05-20T08:41:07;9.65;;;5.40;;
17686;SDS011;8962;52.538;13.266;2023-05-20T08:43:37;11.10;;;5.68;;
17686;SDS011;8962;52.538;13.266;2023-05-20T08:46:07;8.43;;;5.10;;
17686;SDS011;8962;52.538;13.266;2023-05-20T08:48:36;13.07;;;5.78;;
17686;SDS011;8962;52.538;13.266;2023-05-20T08:51:03;12.88;;;6.20;;
17686;SDS011;8962;52.538;13.266;2023-05-20T08:56:05;9.45;;;5.68;;
17686;SDS011;8962;52.538;13.266;2023-05-20T08:58:33;7.57;;;5.28;;
17686;SDS011;8962;52.538;13.266;2023-05-20T09:01:01;8.73;;;4.80;;
17686;SDS011;8962;52.538;13.266;2023-05-20T09:03:31;9.45;;;5.00;;
17686;SDS011;8962;52.538;13.266;2023-05-20T09:06:03;9.07;;;5.63;;
17686;SDS011;8962;52.538;13.266;2023-05-20T09:08:31;10.95;;;4.88;;
17686;SDS011;8962;52.538;13.266;2023-05-20T09:11:02;10.75;;;5.40;;
17686;SDS011;8962;52.538;13.266;2023-05-20T09:13:30;8.85;;;4.72;;
17686;SDS011;8962;52.538;13.266;2023-05-20T09:15:58;7.60;;;4.95;;
17686;SDS011;8962;52.538;13.266;2023-05-20T09:18:26;8.32;;;5.05;;
17686;SDS011;8962;52.538;13.266;2023-05-20T09:20:56;5.85;;;4.68;;
17686;SDS011;8962;52.538;13.266;2023-05-20T09:23:23;6.22;;;5.10;;
17686;SDS011;8962;52.538;13.266;2023-05-20T09:25:52;7.18;;;4.70;;
17686;SDS011;8962;52.538;13.266;2023-05-20T09:28:22;6.72;;;4.63;;
17686;SDS011;8962;52.538;13.266;2023-05-20T09:30:50;10.73;;;6.00;;
17686;SDS011;8962;52.538;13.266;2023-05-20T09:33:26;10.73;;;5.75;;
17686;SDS011;8962;52.538;13.266;2023-05-20T09:36:01;8.30;;;5.55;;
17686;SDS011;8962;52.538;13.266;2023-05-20T09:38:29;9.10;;;5.05;;
17686;SDS011;8962;52.538;13.266;2023-05-20T09:41:02;9.85;;;5.30;;
17686;SDS011;8962;52.538;13.266;2023-05-20T09:43:33;13.48;;;5.55;;
17686;SDS011;8962;52.538;13.266;2023-05-20T09:46:04;8.43;;;5.82;;
17686;SDS011;8962;52.538;13.266;2023-05-20T09:48:33;10.05;;;6.30;;
17686;SDS011;8962;52.538;13.266;2023-05-20T09:51:03;10.38;;;6.03;;
17686;SDS011;8962;52.538;13.266;2023-05-20T09:53:31;10.50;;;6.13;;
17686;SDS011;8962;52.538;13.266;2023-05-20T09:55:59;9.55;;;5.50;;
17686;SDS011;8962;52.538;13.266;2023-05-20T09:58:26;8.95;;;5.70;;
17686;SDS011;8962;52.538;13.266;2023-05-20T10:00:55;9.85;;;5.88;;
17686;SDS011;8962;52.538;13.266;2023-05-20T10:03:22;8.10;;;5.63;;
17686;SDS011;8962;52.538;13.266;2023-05-20T10:05:55;9.13;;;5.95;;
17686;SDS011;8962;52.538;13.266;2023-05-20T10:08:45;11.85;;;7.45;;
17686;SDS011;8962;52.538;13.266;2023-05-20T10:11:25;9.52;;;6.10;;
17686;SDS011;8962;52.538;13.266;2023-05-20T10:14:06;8.05;;;6.55;;
17686;SDS011;8962;52.538;13.266;2023-05-20T10:16:46;8.45;;;6.28;;
17686;SDS011;8962;52.538;13.266;2023-05-20T10:19:24;11.52;;;7.18;;
17686;SDS011;8962;52.538;13.266;2023-05-20T10:22:02;13.23;;;7.30;;
17686;SDS011;8962;52.538;13.266;2023-05-20T10:24:32;11.90;;;7.20;;
17686;SDS011;8962;52.538;13.266;2023-05-20T10:27:02;12.57;;;7.40;;
17686;SDS011;8962;52.538;13.266;2023-05-20T10:29:40;12.68;;;8.20;;
17686;SDS011;8962;52.538;13.266;2023-05-20T10:32:09;11.55;;;7.40;;
17686;SDS011;8962;52.538;13.266;2023-05-20T10:34:45;10.57;;;6.78;;
17686;SDS011;8962;52.538;13.266;2023-05-20T10:37:24;11.35;;;7.85;;
17686;SDS011;8962;52.538;13.266;2023-05-20T10:40:04;11.35;;;7.13;;
17686;SDS011;8962;52.538;13.266;2023-05-20T10:42:33;11.65;;;7.13;;
17686;SDS011;8962;52.538;13.266;2023-05-20T10:45:00;10.27;;;7.38;;
17686;SDS011;8962;52.538;13.266;2023-05-20T10:47:27;10.18;;;6.78;;
17686;SDS011;8962;52.538;13.266;2023-05-20T10:49:55;9.90;;;6.93;;
17686;SDS011;8962;52.538;13.266;2023-05-20T10:52:22;11.65;;;7.57;;
17686;SDS011;8962;52.538;13.266;2023-05-20T10:54:53;10.30;;;7.68;;
17686;SDS011;8962;52.538;13.266;2023-05-20T10:57:24;10.25;;;7.20;;
17686;SDS011;8962;52.538;13.266;2023-05-20T10:59:52;12.10;;;7.72;;
17686;SDS011;8962;52.538;13.266;2023-05-20T11:02:21;10.68;;;7.35;;
17686;SDS011;8962;52.538;13.266;2023-05-20T11:04:51;11.80;;;6.82;;
17686;SDS011;8962;52.538;13.266;2023-05-20T11:07:25;9.07;;;7.18;;
17686;SDS011;8962;52.538;13.266;2023-05-20T11:09:53;10.90;;;7.70;;
17686;SDS011;8962;52.538;13.266;2023-05-20T11:12:22;14.73;;;8.57;;
17686;SDS011;8962;52.538;13.266;2023-05-20T11:14:51;10.55;;;7.65;;
17686;SDS011;8962;52.538;13.266;2023-05-20T11:17:18;11.50;;;7.47;;
17686;SDS011;8962;52.538;13.266;2023-05-20T11:19:47;8.85;;;6.50;;
17686;SDS011;8962;52.538;13.266;2023-05-20T11:22:14;9.15;;;6.85;;
17686;SDS011;8962;52.538;13.266;2023-05-20T11:24:41;11.90;;;7.07;;
17686;SDS011;8962;52.538;13.266;2023-05-20T11:27:09;9.55;;;6.85;;
17686;SDS011;8962;52.538;13.266;2023-05-20T11:29:38;10.07;;;6.53;;
17686;SDS011;8962;52.538;13.266;2023-05-20T11:32:06;10.25;;;7.35;;
17686;SDS011;8962;52.538;13.266;2023-05-20T11:34:36;12.52;;;7.53;;
17686;SDS011;8962;52.538;13.266;2023-05-20T11:37:06;10.48;;;7.10;;
17686;SDS011;8962;52.538;13.266;2023-05-20T11:39:34;11.48;;;6.90;;
17686;SDS011;8962;52.538;13.266;2023-05-20T11:42:02;9.95;;;7.07;;
17686;SDS011;8962;52.538;13.266;2023-05-20T11:44:30;10.02;;;6.88;;
17686;SDS011;8962;52.538;13.266;2023-05-20T11:46:59;10.05;;;6.78;;
17686;SDS011;8962;52.538;13.266;2023-05-20T11:49:27;9.38;;;7.15;;
17686;SDS011;8962;52.538;13.266;2023-05-20T11:52:04;11.10;;;7.65;;
17686;SDS011;8962;52.538;13.266;2023-05-20T11:54:35;8.93;;;7.22;;
17686;SDS011;8962;52.538;13.266;2023-05-20T11:57:02;8.70;;;7.30;;
17686;SDS011;8962;52.538;13.266;2023-05-20T11:59:31;9.38;;;6.45;;
17686;SDS011;8962;52.538;13.266;2023-05-20T12:02:00;10.43;;;7.53;;
17686;SDS011;8962;52.538;13.266;2023-05-20T12:04:27;11.45;;;6.65;;
17686;SDS011;8962;52.538;13.266;2023-05-20T12:06:54;17.63;;;10.68;;
17686;SDS011;8962;52.538;13.266;2023-05-20T12:09:22;9.70;;;6.82;;
17686;SDS011;8962;52.538;13.266;2023-05-20T12:11:49;13.45;;;7.45;;
17686;SDS011;8962;52.538;13.266;2023-05-20T12:14:16;15.65;;;7.72;;
17686;SDS011;8962;52.538;13.266;2023-05-20T12:16:44;11.70;;;7.30;;
17686;SDS011;8962;52.538;13.266;2023-05-20T12:19:12;11.05;;;7.00;;
17686;SDS011;8962;52.538;13.266;2023-05-20T12:21:40;8.30;;;6.82;;
17686;SDS011;8962;52.538;13.266;2023-05-20T12:24:07;10.85;;;6.47;;
17686;SDS011;8962;52.538;13.266;2023-05-20T12:26:35;9.13;;;6.80;;
17686;SDS011;8962;52.538;13.266;2023-05-20T12:29:02;10.52;;;6.20;;
17686;SDS011;8962;52.538;13.266;2023-05-20T12:31:29;9.20;;;6.32;;
17686;SDS011;8962;52.538;13.266;2023-05-20T12:33:57;9.07;;;6.32;;
17686;SDS011;8962;52.538;13.266;2023-05-20T12:36:26;8.55;;;6.88;;
17686;SDS011;8962;52.538;13.266;2023-05-20T12:38:53;11.05;;;7.75;;
17686;SDS011;8962;52.538;13.266;2023-05-20T12:41:20;8.93;;;6.63;;
17686;SDS011;8962;52.538;13.266;2023-05-20T12:43:47;9.75;;;6.50;;
17686;SDS011;8962;52.538;13.266;2023-05-20T12:46:15;9.70;;;6.80;;
17686;SDS011;8962;52.538;13.266;2023-05-20T12:48:43;8.98;;;6.13;;
17686;SDS011;8962;52.538;13.266;2023-05-20T12:51:10;10.82;;;6.95;;
17686;SDS011;8962;52.538;13.266;2023-05-20T12:53:38;9.25;;;6.90;;
17686;SDS011;8962;52.538;13.266;2023-05-20T12:56:06;8.73;;;6.72;;
17686;SDS011;8962;52.538;13.266;2023-05-20T12:58:33;8.25;;;6.47;;
17686;SDS011;8962;52.538;13.266;2023-05-20T13:01:00;10.20;;;6.80;;
17686;SDS011;8962;52.538;13.266;2023-05-20T13:03:28;10.05;;;6.72;;
17686;SDS011;8962;52.538;13.266;2023-05-20T13:05:55;9.98;;;7.20;;
17686;SDS011;8962;52.538;13.266;2023-05-20T13:08:24;8.88;;;6.50;;
17686;SDS011;8962;52.538;13.266;2023-05-20T13:10:53;8.60;;;6.55;;
17686;SDS011;8962;52.538;13.266;2023-05-20T13:13:21;9.13;;;6.28;;
17686;SDS011;8962;52.538;13.266;2023-05-20T13:15:48;7.78;;;6.32;;
17686;SDS011;8962;52.538;13.266;2023-05-20T13:18:15;9.50;;;6.30;;
17686;SDS011;8962;52.538;13.266;2023-05-20T13:20:43;12.18;;;6.93;;
17686;SDS011;8962;52.538;13.266;2023-05-20T13:23:11;9.70;;;6.05;;
17686;SDS011;8962;52.538;13.266;2023-05-20T13:25:38;7.22;;;5.70;;
17686;SDS011;8962;52.538;13.266;2023-05-20T13:28:07;11.82;;;7.85;;
17686;SDS011;8962;52.538;13.266;2023-05-20T13:30:34;11.98;;;7.90;;
17686;SDS011;8962;52.538;13.266;2023-05-20T13:33:01;8.90;;;7.20;;
17686;SDS011;8962;52.538;13.266;2023-05-20T13:35:28;7.82;;;6.32;;
17686;SDS011;8962;52.538;13.266;2023-05-20T13:37:55;8.45;;;5.63;;
17686;SDS011;8962;52.538;13.266;2023-05-20T13:40:22;12.18;;;5.75;;
17686;SDS011;8962;52.538;13.266;2023-05-20T13:42:50;10.10;;;6.13;;
17686;SDS011;8962;52.538;13.266;2023-05-20T13:45:19;7.55;;;5.82;;
17686;SDS011;8962;52.538;13.266;2023-05-20T13:47:47;11.63;;;7.50;;
17686;SDS011;8962;52.538;13.266;2023-05-20T13:50:14;7.75;;;6.88;;
17686;SDS011;8962;52.538;13.266;2023-05-20T13:52:42;8.18;;;6.35;;
17686;SDS011;8962;52.538;13.266;2023-05-20T13:55:09;9.52;;;5.97;;
17686;SDS011;8962;52.538;13.266;2023-05-20T13:57:36;6.72;;;5.60;;
17686;SDS011;8962;52.538;13.266;2023-05-20T14:00:04;6.55;;;5.60;;
17686;SDS011;8962;52.538;13.266;2023-05-20T14:02:35;6.38;;;5.63;;
17686;SDS011;8962;52.538;13.266;2023-05-20T14:05:02;9.77;;;6.00;;
17686;SDS011;8962;52.538;13.266;2023-05-20T14:07:31;8.07;;;5.97;;
17686;SDS011;8962;52.538;13.266;2023-05-20T14:09:58;10.70;;;5.50;;
17686;SDS011;8962;52.538;13.266;2023-05-20T14:12:25;7.03;;;5.70;;
17686;SDS011;8962;52.538;13.266;2023-05-20T14:14:52;9.63;;;5.60;;
17686;SDS011;8962;52.538;13.266;2023-05-20T14:17:19;9.10;;;5.47;;
17686;SDS011;8962;52.538;13.266;2023-05-20T14:19:48;8.07;;;5.60;;
17686;SDS011;8962;52.538;13.266;2023-05-20T14:22:16;6.32;;;5.15;;
17686;SDS011;8962;52.538;13.266;2023-05-20T14:24:44;7.80;;;5.45;;
17686;SDS011;8962;52.538;13.266;2023-05-20T14:27:11;8.27;;;5.65;;
17686;SDS011;8962;52.538;13.266;2023-05-20T14:29:38;8.57;;;5.45;;
17686;SDS011;8962;52.538;13.266;2023-05-20T14:32:05;9.90;;;5.75;;
17686;SDS011;8962;52.538;13.266;2023-05-20T14:34:33;9.00;;;5.38;;
17686;SDS011;8962;52.538;13.266;2023-05-20T14:37:02;7.65;;;5.25;;
17686;SDS011;8962;52.538;13.266;2023-05-20T14:39:33;7.88;;;5.32;;
17686;SDS011;8962;52.538;13.266;2023-05-20T14:42:01;9.57;;;5.50;;
17686;SDS011;8962;52.538;13.266;2023-05-20T14:44:28;6.32;;;5.00;;
17686;SDS011;8962;52.538;13.266;2023-05-20T14:46:56;7.40;;;5.57;;
17686;SDS011;8962;52.538;13.266;2023-05-20T14:49:23;11.25;;;5.40;;
17686;SDS011;8962;52.538;13.266;2023-05-20T14:51:50;8.20;;;5.13;;
17686;SDS011;8962;52.538;13.266;2023-05-20T14:54:19;8.88;;;5.13;;